Inversion Research: Above Escarpment

*Note: All times are displayed in the local standard time of the station location.
**Rain - Equipment is designed to accurately record liquid precipitation; under conditions when precipitation is not in liquid form, the data displayed may not properly reflect rainfall values.

Date Max Temp
(°C)
Min Temp
(°C)
Avg Temp
(°C)
Rain (mm) Avg RH (%)
Sat, Oct 21, 2017 21.8 11.6 15.4 - 80.2
Fri, Oct 20, 2017 19.8 5.7 12.8 - 69.1
Thu, Oct 19, 2017 19.6 8.8 15.2 - 77.2
Wed, Oct 18, 2017 19.2 10.8 14.8 - 75.4
Tue, Oct 17, 2017 17.5 1.6 10.9 - 80.0
Mon, Oct 16, 2017 10.9 2.0 7.2 - 81.8
Sun, Oct 15, 2017 24.4 9.3 18.2 - 85.1
DateTime Avg Temp (°C) Rain (mm) RH (%)
Sun, Oct 22, 2017 12:00 20.6 - 68.0
Sun, Oct 22, 2017 11:00 19.1 - 72.5
Sun, Oct 22, 2017 10:00 17.3 - 77.0
Sun, Oct 22, 2017 09:00 15.1 - 86.3
Sun, Oct 22, 2017 08:00 13.3 - 94.8
Sun, Oct 22, 2017 07:00 12.9 - 95.3
Sun, Oct 22, 2017 06:00 12.8 - 94.5
Sun, Oct 22, 2017 05:00 13.0 - 92.8
Sun, Oct 22, 2017 04:00 13.4 - 90.5
Sun, Oct 22, 2017 03:00 13.9 - 87.8
Sun, Oct 22, 2017 02:00 14.1 - 88.0
Sun, Oct 22, 2017 01:00 14.6 - 83.0
Sun, Oct 22, 2017 00:00 15.6 - 73.8
Sat, Oct 21, 2017 23:00 14.7 - 73.3
Sat, Oct 21, 2017 22:00 12.6 - 85.5
Sat, Oct 21, 2017 21:00 12.0 - 90.8
Sat, Oct 21, 2017 20:00 12.7 - 88.3
Sat, Oct 21, 2017 19:00 15.4 - 73.3
Sat, Oct 21, 2017 18:00 19.2 - 59.0
Sat, Oct 21, 2017 17:00 20.4 - 54.5
Sat, Oct 21, 2017 16:00 21.1 - 54.0
Sat, Oct 21, 2017 15:00 21.6 - 53.8
Sat, Oct 21, 2017 14:00 21.5 - 54.0
Sat, Oct 21, 2017 13:00 20.7 - 59.0
Sat, Oct 21, 2017 12:00 18.9 - 69.3
Sat, Oct 21, 2017 11:00 17.1 - 77.3
Sat, Oct 21, 2017 10:00 15.5 - 83.5
Sat, Oct 21, 2017 09:00 12.8 - 93.8
Sat, Oct 21, 2017 08:00 11.9 - 97.8
Sat, Oct 21, 2017 07:00 11.9 - 96.5
Sat, Oct 21, 2017 06:00 11.9 - 98.3
Sat, Oct 21, 2017 05:00 12.0 - 97.0
Sat, Oct 21, 2017 04:00 12.0 - 98.3
Sat, Oct 21, 2017 03:00 12.6 - 97.0
Sat, Oct 21, 2017 02:00 12.6 - 99.3
Sat, Oct 21, 2017 01:00 11.8 - 98.0
Sat, Oct 21, 2017 00:00 11.4 - 96.8
Fri, Oct 20, 2017 23:00 11.6 - 92.8
Fri, Oct 20, 2017 22:00 12.1 - 88.3
Fri, Oct 20, 2017 21:00 12.2 - 80.8
Fri, Oct 20, 2017 20:00 13.3 - 63.5
Fri, Oct 20, 2017 19:00 14.5 - 56.8
Fri, Oct 20, 2017 18:00 17.4 - 46.0
Fri, Oct 20, 2017 17:00 18.9 - 41.8
Fri, Oct 20, 2017 16:00 19.4 - 47.0
Fri, Oct 20, 2017 15:00 19.6 - 47.0
Fri, Oct 20, 2017 14:00 19.7 - 48.0
Fri, Oct 20, 2017 13:00 19.0 - 47.3


asterix Register now to access more data! asterix